Weather observations for the past three days for
Igiugig
Imperial (Metric)
Date Time (akdt) Wind (mph) Vis. (mi.) Weather Sky Cond. Temperature (ºF) Relative Humidity Wind Chill (°F) Heat Index (°F) Pressure Precipitation (in)
Air Dwpt 6 hour altimeter (in) sea level (mb) 1 hr 3 hr 6 hr
Max. Min.
08 04:56 Calm 10.00 Overcast BKN070 OVC085 28 28 100% 29.8 1010.0
08 03:56 Calm 10.00 A Few Clouds FEW060 28 27 35.1 28 96% 29.81 1010.5
08 02:56 Calm 10.00 Partly Cloudy SCT085 28.9 28 96% 29.83 1010.9
08 01:56 E 5 10.00 A Few Clouds FEW085 30 28.9 96% 26 29.83 1011.2
08 00:56 NE 6 10.00 Overcast OVC060 33.1 30.9 92% 28 29.85 1011.5
07 23:56 N 5 10.00 Mostly Cloudy BKN060 BKN100 32 30 92% 28 29.86 1011.9
07 22:56 Calm 10.00 Overcast OVC100 32 30 92% 29.86 1012.1
07 21:56 NE 6 10.00 Mostly Cloudy SCT060 BKN100 35.1 32 43 35.1 89% 31 29.87 1012.2
07 20:56 N 6 10.00 Overcast OVC100 37 32 82% 33 29.87 1012.5
07 19:56 N 5 10.00 Overcast OVC100 41 33.1 73% 38 29.89 1013.0
07 18:56 N 5 10.00 Fair CLR 39.9 32 73% 37 29.9 1013.5
07 17:56 N 6 10.00 Overcast OVC095 39.9 30.9 70% 36 29.92 1014.2
07 16:56 NE 6 10.00 Overcast OVC095 37.9 28.9 70% 34 29.95 1014.9
07 15:56 N 6 10.00 Overcast OVC095 39 30 39.9 33.1 70% 35 29.96 1015.5
07 14:56 N 5 10.00 Overcast OVC095 36 30 79% 33 29.98 1016.1
07 13:56 NE 5 10.00 Overcast OVC095 37.9 30.9 76% 35 29.99 1016.6
07 12:56 NE 6 10.00 Overcast OVC095 35.1 30.9 85% 31 30.01 1017.1
07 11:56 NE 5 10.00 Overcast OVC090 34 30 85% 30 30.02 1017.5
07 10:56 NE 6 10.00 Overcast OVC090 34 30 85% 29 30.03 1017.8
07 09:56 N 3 10.00 Overcast OVC090 33.1 30 34 27 89% 30.04 1018.0
07 08:56 Calm 10.00 Overcast OVC090 33.1 30.9 92% 30.04 1018.2
07 07:56 Calm 10.00 Mostly Cloudy BKN095 30 28.9 96% 30.05 1018.3
07 06:56 Calm 10.00 Overcast OVC095 28 27 96% 30.05 1018.5
07 05:56 Calm 10.00 Overcast OVC095 28.9 28 96% 30.06 1018.7
07 04:56 S 5 10.00 Overcast OVC095 28.9 28 96% 25 30.06 1018.8
07 03:56 S 6 10.00 Overcast OVC100 28 28 37 27 100% 22 30.07 1019.1
07 02:56 S 6 10.00 Partly Cloudy SCT100 27 26.1 96% 21 30.07 1019.3
07 01:56 S 6 10.00 Mostly Cloudy BKN100 27 27 100% 21 30.08 1019.4
07 00:56 S 7 10.00 Fair CLR 28 27 96% 22 30.07 1019.0
06 23:56 S 6 10.00 Fair CLR 30 28 92% 25 30.06 1018.8
06 22:56 SW 7 10.00 Fair CLR 34 28.9 82% 29 30.05 1018.6
06 21:56 SW 9 10.00 Fair CLR 37 30.9 46 37 79% 31 30.04 1018.1
06 20:56 S 12 10.00 Fair CLR 43 28.9 58% 37 30.04 1018.1
06 19:56 S 10 10.00 Fair CLR 44.1 28 53% 39 30.03 1017.9
06 18:56 S 12 10.00 Fair CLR 45 28.9 54% 40 30.04 1018.0
06 17:56 S 12 10.00 Mostly Cloudy BKN048 45 30.9 58% 40 30.04 1018.0
06 16:56 S 13 10.00 Mostly Cloudy FEW035 BKN048 44.1 30.9 60% 38 30.04 1018.1
06 15:56 S 10 10.00 Partly Cloudy SCT035 44.1 30 45 36 58% 39 30.04 1018.1
06 14:56 SW 9 10.00 A Few Clouds FEW031 44.1 30.9 60% 40 30.04 1018.2
06 13:56 SW 13 G 16 10.00 Fair CLR 43 33.1 68% 37 30.05 1018.4
06 12:56 S 16 10.00 Mostly Cloudy SCT014 BKN055 39 33.1 79% 31 30.05 1018.6
06 11:56 S 14 10.00 Mostly Cloudy BKN012 37 33.1 86% 29 30.04 1018.2
06 10:56 S 12 G 18 10.00 Overcast BKN012 OVC055 37 32 82% 30 30.04 1018.0
06 09:56 S 13 10.00 Overcast SCT009 OVC060 36 32 36 30.9 86% 28 30.03 1017.8
06 08:56 SW 9 10.00 Overcast OVC060 33.1 28.9 85% 26 30.02 1017.4
06 07:56 S 7 10.00 Overcast OVC060 33.1 28 82% 28 30 1016.9
06 06:56 SW 7 10.00 Overcast OVC060 32 28 85% 26 29.99 1016.4
06 05:56 S 6 10.00 Overcast OVC065 32 28.9 88% 27 29.98 1016.2
06 04:56 S 5 10.00 Overcast OVC065 33.1 28 82% 29 29.97 1015.7
06 03:56 SW 7 10.00 Overcast OVC060 34 28.9 39 33.1 82% 29 29.96 1015.4
06 02:56 SW 6 10.00 Overcast OVC060 33.1 30 89% 28 29.94 1014.9
06 01:56 S 3 10.00 Overcast BKN065 OVC110 35.1 34 96% 29.93 1014.4
06 00:56 SW 5 10.00 Overcast BKN060 OVC080 37 35.1 93% 34 29.92 1014.1
05 23:56 W 3 10.00 Overcast BKN048 OVC060 37.9 35.1 89% 29.91 1013.6
05 22:56 W 6 10.00 Overcast FEW035 OVC048 39 36 89% 35 29.9 1013.3
05 21:56 W 7 10.00 Overcast FEW034 OVC055 39 36 46 39 89% 35 29.87 1012.3
05 20:56 W 9 10.00 Overcast FEW015 BKN048 OVC060 41 37 86% 36 29.85 1011.6
05 19:56 W 10 10.00 Overcast FEW015 BKN026 OVC065 42.1 37.9 85% 37 29.83 1010.9
05 18:56 W 9 9.00 Light Rain SCT021 BKN030 OVC037 43 39 86% 38 29.8 1010.0
05 17:56 W 12 10.00 Mostly Cloudy SCT029 BKN055 45 37 74% 40 29.78 1009.2
05 16:56 W 12 10.00 Light Rain FEW020 BKN042 OVC050 45 39 80% 40 29.77 1008.8
05 15:56 W 7 10.00 Light Rain BKN018 OVC025 45 41 46 41 86% 42 29.75 1008.4
05 14:56 W 8 10.00 Light Rain OVC020 46 41 83% 42 29.75 1008.2
05 13:56 W 9 10.00 Light Rain FEW008 BKN014 OVC029 45 42.1 90% 41 29.74 1007.9
05 12:56 SW 9 10.00 Overcast OVC011 45 41 86% 41 29.72 1007.3
05 11:56 Vrbl 6 10.00 Light Rain BKN007 BKN040 OVC055 43 41 93% 40 29.7 1006.8
05 10:56 W 5 10.00 Overcast FEW005 OVC060 42.1 39.9 92% 40 29.69 1006.1
05 09:56 W 5 10.00 Overcast FEW005 BKN019 OVC055 41 39.9 41 36 96% 38 29.67 1005.5
05 08:56 Calm 10.00 Light Rain FEW040 OVC080 39.9 39.9 100% 29.65 1004.8
05 07:56 Calm 10.00 Light Rain FEW030 BKN050 OVC060 37.9 37.9 100% 29.63 1004.2
05 06:56 Calm 10.00 Light Rain OVC030 37 37 100% 29.61 1003.5
05 05:56 NW 3 10.00 Overcast OVC075 37 37 100% 29.58 1002.6
Date Time (akdt) Wind (mph) Vis. (mi.) Weather Sky Cond. Air Dwpt Max. Min. Relative Humidity Wind Chill (°F) Heat Index (°F) altimeter (in) sea level (mb) 1 hr 3 hr 6 hr
6 hour
Temperature (ºF) Pressure Precipitation (in)